KBLF/BLF METAR and TAF weather

Enter ICAO airport designator
Station Type Date Time Source
KBLF METAR 2024/05/28 06:23 UTC NOAA

KBLF 280623Z AUTO 29004KT 10SM SCT023 SCT029 16/13 A2997 RMK AO2 T01610133


Station Type Date Time Source
KBLF Decoded METAR 2024/05/28 06:23 UTC NOAA

BLUEFIELD MERCER COUNTY AIRPORT , WV, United States (KBLF) 37-18N 081-12W 873M
May 28, 2024 - 02:23 AM EDT / 2024.05.28 0623 UTC
Wind: from the WNW (290 degrees) at 5 MPH (4 KT):0
Visibility: 10 mile(s):0
Sky conditions: partly cloudy
Temperature: 61.0 F (16.1 C)
Dew Point: 55.9 F (13.3 C)
Relative Humidity: 83%
Pressure (altimeter): 29.97 in. Hg (1014 hPa)
ob: KBLF 280623Z AUTO 29004KT 10SM SCT023 SCT029 16/13 A2997 RMK AO2 T01610133
cycle: 6

Station Type Date Time Source
KBLF TAF 2024/05/28 18:34 UTC NOAA